createdAt,value
2018-09-15T00:05:21.996Z,4.90
2018-09-15T00:15:26.050Z,4.23
2018-09-15T00:25:29.838Z,5.47
2018-09-15T00:35:33.401Z,4.10
2018-09-15T00:45:36.945Z,6.97
2018-09-15T00:55:40.566Z,5.90
2018-09-15T01:05:44.525Z,4.87
2018-09-15T01:15:48.276Z,3.67
2018-09-15T01:25:51.837Z,5.80
2018-09-15T01:35:55.689Z,3.07
2018-09-15T01:45:59.292Z,3.50
2018-09-15T01:56:03.611Z,2.77
2018-09-15T02:06:07.159Z,3.07
2018-09-15T02:16:10.837Z,4.08
2018-09-15T02:26:21.291Z,4.13
2018-09-15T02:36:24.983Z,2.83
2018-09-15T02:46:28.986Z,5.37
2018-09-15T02:56:33.159Z,5.67
2018-09-15T03:06:36.744Z,5.13
2018-09-15T03:16:40.288Z,4.47
2018-09-15T03:26:43.856Z,4.43
2018-09-15T03:36:51.831Z,6.00
2018-09-15T03:46:55.452Z,7.67
2018-09-15T03:56:59.038Z,6.73
2018-09-15T04:07:03.591Z,3.87
2018-09-15T04:17:07.647Z,3.70
2018-09-15T04:27:11.272Z,2.70
2018-09-15T04:37:16.242Z,3.93
2018-09-15T04:47:19.820Z,5.30
2018-09-15T04:57:23.695Z,5.10
2018-09-15T05:07:27.335Z,5.60
2018-09-15T05:17:31.951Z,3.85
2018-09-15T05:27:35.692Z,4.53
2018-09-15T05:37:39.323Z,4.70
2018-09-15T05:47:42.921Z,8.80
2018-09-15T05:57:46.646Z,7.57
2018-09-15T06:07:50.329Z,5.23
2018-09-15T06:17:53.846Z,6.07
2018-09-15T06:27:57.427Z,6.97
2018-09-15T06:38:01.052Z,4.43
2018-09-15T06:48:04.614Z,6.30
2018-09-15T06:58:08.332Z,6.87
2018-09-15T07:08:11.929Z,6.30
2018-09-15T07:18:15.615Z,7.03
2018-09-15T07:28:19.933Z,7.73
2018-09-15T07:38:23.752Z,7.67
2018-09-15T07:48:27.460Z,9.80
2018-09-15T07:58:31.087Z,10.50
2018-09-15T08:08:34.921Z,8.23
2018-09-15T08:18:38.608Z,7.47
2018-09-15T08:28:42.858Z,6.90
2018-09-15T08:38:46.454Z,6.57
2018-09-15T08:48:50.047Z,9.90
2018-09-15T08:58:53.674Z,5.40
2018-09-15T09:08:57.279Z,7.43
2018-09-15T09:19:00.881Z,6.80
2018-09-15T09:29:05.303Z,3.97
2018-09-15T09:39:10.088Z,8.13
2018-09-15T09:49:13.670Z,6.17
2018-09-15T09:59:17.231Z,6.57
2018-09-15T10:09:20.845Z,3.83
2018-09-15T10:19:24.445Z,4.90
2018-09-15T10:29:28.082Z,4.43
2018-09-15T10:39:31.683Z,5.43
2018-09-15T10:49:35.327Z,3.63
2018-09-15T10:59:39.297Z,6.73
2018-09-15T11:09:43.305Z,4.90
2018-09-15T11:19:46.992Z,4.90
2018-09-15T11:29:50.586Z,6.50
2018-09-15T11:39:54.212Z,5.10
2018-09-15T11:49:57.839Z,4.80
2018-09-15T12:00:01.527Z,4.42
2018-09-15T12:10:05.125Z,4.50
2018-09-15T12:20:08.774Z,3.77
2018-09-15T12:30:12.567Z,4.57
2018-09-15T12:40:16.179Z,4.57
2018-09-15T12:50:19.806Z,5.35
2018-09-15T13:00:23.480Z,3.90
2018-09-15T13:10:27.089Z,3.83
2018-09-15T13:20:30.703Z,6.00
2018-09-15T13:30:34.289Z,4.30
2018-09-15T13:40:37.910Z,7.23
2018-09-15T13:50:41.638Z,4.63
2018-09-15T14:00:45.276Z,10.67
2018-09-15T14:10:48.943Z,3.37
2018-09-15T14:20:52.605Z,5.43
2018-09-15T14:30:56.353Z,5.97
2018-09-15T14:40:59.966Z,7.03
2018-09-15T14:51:03.687Z,9.20
2018-09-15T15:01:07.338Z,6.83
2018-09-15T15:11:11.078Z,7.37
2018-09-15T15:21:14.751Z,7.33
2018-09-15T15:31:18.394Z,6.28
2018-09-15T15:41:22.063Z,6.37
2018-09-15T15:51:25.658Z,9.30
2018-09-15T16:01:29.935Z,6.27
2018-09-15T16:11:33.524Z,6.00
2018-09-15T16:21:37.103Z,6.63
2018-09-15T16:31:40.753Z,5.50
2018-09-15T16:41:44.371Z,4.47
2018-09-15T16:51:48.107Z,3.57
2018-09-15T17:01:51.830Z,4.75
2018-09-15T17:11:55.589Z,7.03
2018-09-15T17:21:59.241Z,7.33
2018-09-15T17:32:03.667Z,8.60
2018-09-15T17:42:07.277Z,6.53
2018-09-15T17:52:10.951Z,7.50
2018-09-15T18:02:14.567Z,6.17
2018-09-15T18:12:18.286Z,7.70
2018-09-15T18:22:21.848Z,8.80
2018-09-15T18:32:25.539Z,11.03
2018-09-15T18:42:29.108Z,7.67
2018-09-15T18:52:32.705Z,6.90
2018-09-15T19:02:36.649Z,9.27
2018-09-15T19:12:40.358Z,8.03
2018-09-15T19:22:44.079Z,9.67
2018-09-15T19:32:47.692Z,8.68
2018-09-15T19:42:51.600Z,10.63
2018-09-15T19:52:55.211Z,10.40
2018-09-15T20:02:58.760Z,9.10
2018-09-15T20:13:02.386Z,8.87
2018-09-15T20:23:05.937Z,8.43
2018-09-15T20:33:09.671Z,8.43
2018-09-15T20:43:13.174Z,7.50
2018-09-15T20:53:16.764Z,11.57
2018-09-15T21:03:20.463Z,10.97
2018-09-15T21:13:24.041Z,9.67
2018-09-15T21:23:28.429Z,9.30
2018-09-15T21:33:32.124Z,8.77
2018-09-15T21:43:35.990Z,10.33
2018-09-15T21:53:39.607Z,9.97
2018-09-15T22:03:48.518Z,8.57
2018-09-15T22:13:52.081Z,9.13
2018-09-15T22:23:55.747Z,7.13
2018-09-15T22:34:00.200Z,11.13
2018-09-15T22:44:04.488Z,11.43
2018-09-15T22:54:08.060Z,10.20
2018-09-15T23:04:13.421Z,9.40
2018-09-15T23:14:16.964Z,11.20
2018-09-15T23:24:20.577Z,10.20
2018-09-15T23:34:24.078Z,8.90
2018-09-15T23:44:27.648Z,10.07
2018-09-15T23:54:31.263Z,11.07
